sensor_id;sensor_type;location;lat;lon;timestamp;temperature;humidity
30694;DHT22;17446;48.022;-1.740;2024-02-21T00:01:50;12.20;99.90
30694;DHT22;17446;48.022;-1.740;2024-02-21T00:04:15;12.20;99.90
30694;DHT22;17446;48.022;-1.740;2024-02-21T00:06:41;12.20;99.90
30694;DHT22;17446;48.022;-1.740;2024-02-21T00:09:07;12.20;99.90
30694;DHT22;17446;48.022;-1.740;2024-02-21T00:11:35;12.10;99.90
30694;DHT22;17446;48.022;-1.740;2024-02-21T00:14:00;12.10;99.90
30694;DHT22;17446;48.022;-1.740;2024-02-21T00:16:26;12.10;99.90
30694;DHT22;17446;48.022;-1.740;2024-02-21T00:18:52;12.10;99.90
30694;DHT22;17446;48.022;-1.740;2024-02-21T00:21:17;12.10;99.90
30694;DHT22;17446;48.022;-1.740;2024-02-21T00:23:44;12.10;99.90
30694;DHT22;17446;48.022;-1.740;2024-02-21T00:26:12;12.10;99.90
30694;DHT22;17446;48.022;-1.740;2024-02-21T00:28:38;12.10;99.90
30694;DHT22;17446;48.022;-1.740;2024-02-21T00:31:04;12.10;99.90
30694;DHT22;17446;48.022;-1.740;2024-02-21T00:33:29;12.00;99.90
30694;DHT22;17446;48.022;-1.740;2024-02-21T00:35:55;12.00;99.90
30694;DHT22;17446;48.022;-1.740;2024-02-21T00:38:20;12.00;99.90
30694;DHT22;17446;48.022;-1.740;2024-02-21T00:40:46;12.00;99.90
30694;DHT22;17446;48.022;-1.740;2024-02-21T00:43:12;12.00;99.90
30694;DHT22;17446;48.022;-1.740;2024-02-21T00:45:37;11.90;99.90
30694;DHT22;17446;48.022;-1.740;2024-02-21T00:48:03;11.90;99.90
30694;DHT22;17446;48.022;-1.740;2024-02-21T00:50:29;11.90;99.90
30694;DHT22;17446;48.022;-1.740;2024-02-21T00:52:55;11.90;99.90
30694;DHT22;17446;48.022;-1.740;2024-02-21T00:55:21;11.80;99.90
30694;DHT22;17446;48.022;-1.740;2024-02-21T00:57:46;11.80;99.90
30694;DHT22;17446;48.022;-1.740;2024-02-21T01:00:12;11.80;99.90
30694;DHT22;17446;48.022;-1.740;2024-02-21T01:02:38;11.80;99.90
30694;DHT22;17446;48.022;-1.740;2024-02-21T01:05:04;11.80;99.90
30694;DHT22;17446;48.022;-1.740;2024-02-21T01:07:29;11.80;99.90
30694;DHT22;17446;48.022;-1.740;2024-02-21T01:09:55;11.80;99.90
30694;DHT22;17446;48.022;-1.740;2024-02-21T01:12:20;11.80;99.90
30694;DHT22;17446;48.022;-1.740;2024-02-21T01:14:46;11.80;99.90
30694;DHT22;17446;48.022;-1.740;2024-02-21T01:17:12;11.80;99.90
30694;DHT22;17446;48.022;-1.740;2024-02-21T01:19:37;11.80;99.90
30694;DHT22;17446;48.022;-1.740;2024-02-21T01:22:04;11.70;99.90
30694;DHT22;17446;48.022;-1.740;2024-02-21T01:24:29;11.80;99.90
30694;DHT22;17446;48.022;-1.740;2024-02-21T01:26:55;11.70;99.90
30694;DHT22;17446;48.022;-1.740;2024-02-21T01:29:21;11.80;99.90
30694;DHT22;17446;48.022;-1.740;2024-02-21T01:31:46;11.80;99.90
30694;DHT22;17446;48.022;-1.740;2024-02-21T01:34:13;11.80;99.90
30694;DHT22;17446;48.022;-1.740;2024-02-21T01:36:38;11.80;99.90
30694;DHT22;17446;48.022;-1.740;2024-02-21T01:39:04;11.80;99.90
30694;DHT22;17446;48.022;-1.740;2024-02-21T01:41:30;11.80;99.90
30694;DHT22;17446;48.022;-1.740;2024-02-21T01:43:56;11.70;99.90
30694;DHT22;17446;48.022;-1.740;2024-02-21T01:46:23;11.70;99.90
30694;DHT22;17446;48.022;-1.740;2024-02-21T01:48:49;11.80;99.90
30694;DHT22;17446;48.022;-1.740;2024-02-21T01:51:15;11.80;99.90
30694;DHT22;17446;48.022;-1.740;2024-02-21T01:53:44;11.70;99.90
30694;DHT22;17446;48.022;-1.740;2024-02-21T01:56:10;11.70;99.90
30694;DHT22;17446;48.022;-1.740;2024-02-21T01:58:39;11.70;99.90
30694;DHT22;17446;48.022;-1.740;2024-02-21T02:01:06;11.80;99.90
30694;DHT22;17446;48.022;-1.740;2024-02-21T02:03:31;11.80;99.90
30694;DHT22;17446;48.022;-1.740;2024-02-21T02:05:57;11.70;99.90
30694;DHT22;17446;48.022;-1.740;2024-02-21T02:08:23;11.80;99.90
30694;DHT22;17446;48.022;-1.740;2024-02-21T02:10:48;11.80;99.90
30694;DHT22;17446;48.022;-1.740;2024-02-21T02:13:14;11.70;99.90
30694;DHT22;17446;48.022;-1.740;2024-02-21T02:15:49;11.70;99.90
30694;DHT22;17446;48.022;-1.740;2024-02-21T02:18:16;11.70;99.90
30694;DHT22;17446;48.022;-1.740;2024-02-21T02:20:44;11.70;99.90
30694;DHT22;17446;48.022;-1.740;2024-02-21T02:23:12;11.70;99.90
30694;DHT22;17446;48.022;-1.740;2024-02-21T02:25:40;11.70;99.90
30694;DHT22;17446;48.022;-1.740;2024-02-21T02:28:08;11.60;99.90
30694;DHT22;17446;48.022;-1.740;2024-02-21T02:30:35;11.60;99.90
30694;DHT22;17446;48.022;-1.740;2024-02-21T02:33:04;11.60;99.90
30694;DHT22;17446;48.022;-1.740;2024-02-21T02:35:30;11.60;99.90
30694;DHT22;17446;48.022;-1.740;2024-02-21T02:37:56;11.60;99.90
30694;DHT22;17446;48.022;-1.740;2024-02-21T02:40:22;11.50;99.90
30694;DHT22;17446;48.022;-1.740;2024-02-21T02:42:49;11.50;99.90
30694;DHT22;17446;48.022;-1.740;2024-02-21T02:45:15;11.50;99.90
30694;DHT22;17446;48.022;-1.740;2024-02-21T02:47:41;11.50;99.90
30694;DHT22;17446;48.022;-1.740;2024-02-21T02:50:07;11.50;99.90
30694;DHT22;17446;48.022;-1.740;2024-02-21T02:52:33;11.50;99.90
30694;DHT22;17446;48.022;-1.740;2024-02-21T02:54:59;11.50;99.90
30694;DHT22;17446;48.022;-1.740;2024-02-21T02:57:24;11.50;99.90
30694;DHT22;17446;48.022;-1.740;2024-02-21T02:59:51;11.50;99.90
30694;DHT22;17446;48.022;-1.740;2024-02-21T03:02:17;11.50;99.90
30694;DHT22;17446;48.022;-1.740;2024-02-21T03:04:43;11.50;99.90
30694;DHT22;17446;48.022;-1.740;2024-02-21T03:07:09;11.50;99.90
30694;DHT22;17446;48.022;-1.740;2024-02-21T03:09:37;11.50;99.90
30694;DHT22;17446;48.022;-1.740;2024-02-21T03:12:03;11.50;99.90
30694;DHT22;17446;48.022;-1.740;2024-02-21T03:14:29;11.50;99.90
30694;DHT22;17446;48.022;-1.740;2024-02-21T03:16:55;11.50;99.90
30694;DHT22;17446;48.022;-1.740;2024-02-21T03:19:21;11.50;99.90
30694;DHT22;17446;48.022;-1.740;2024-02-21T03:21:48;11.50;99.90
30694;DHT22;17446;48.022;-1.740;2024-02-21T03:24:15;11.50;99.90
30694;DHT22;17446;48.022;-1.740;2024-02-21T03:26:41;11.50;99.90
30694;DHT22;17446;48.022;-1.740;2024-02-21T03:29:06;11.50;99.90
30694;DHT22;17446;48.022;-1.740;2024-02-21T03:31:33;11.60;99.90
30694;DHT22;17446;48.022;-1.740;2024-02-21T03:33:58;11.60;99.90
30694;DHT22;17446;48.022;-1.740;2024-02-21T03:36:24;11.60;99.90
30694;DHT22;17446;48.022;-1.740;2024-02-21T03:38:49;11.50;99.90
30694;DHT22;17446;48.022;-1.740;2024-02-21T03:41:15;11.60;99.90
30694;DHT22;17446;48.022;-1.740;2024-02-21T03:43:40;11.60;99.90
30694;DHT22;17446;48.022;-1.740;2024-02-21T03:46:06;11.60;99.90
30694;DHT22;17446;48.022;-1.740;2024-02-21T03:48:32;11.50;99.90
30694;DHT22;17446;48.022;-1.740;2024-02-21T03:50:58;11.60;99.90
30694;DHT22;17446;48.022;-1.740;2024-02-21T03:53:24;11.50;99.90
30694;DHT22;17446;48.022;-1.740;2024-02-21T03:55:49;11.50;99.90
30694;DHT22;17446;48.022;-1.740;2024-02-21T03:58:15;11.60;99.90
30694;DHT22;17446;48.022;-1.740;2024-02-21T04:00:41;11.60;99.90
30694;DHT22;17446;48.022;-1.740;2024-02-21T04:03:06;11.60;99.90
30694;DHT22;17446;48.022;-1.740;2024-02-21T04:05:32;11.60;99.90
30694;DHT22;17446;48.022;-1.740;2024-02-21T04:07:58;11.60;99.90
30694;DHT22;17446;48.022;-1.740;2024-02-21T04:10:24;11.60;99.90
30694;DHT22;17446;48.022;-1.740;2024-02-21T04:12:50;11.60;99.90
30694;DHT22;17446;48.022;-1.740;2024-02-21T04:15:16;11.60;99.90
30694;DHT22;17446;48.022;-1.740;2024-02-21T04:17:42;11.60;99.90
30694;DHT22;17446;48.022;-1.740;2024-02-21T04:20:14;11.60;99.90
30694;DHT22;17446;48.022;-1.740;2024-02-21T04:22:40;11.60;99.90
30694;DHT22;17446;48.022;-1.740;2024-02-21T04:25:06;11.60;99.90
30694;DHT22;17446;48.022;-1.740;2024-02-21T04:27:32;11.60;99.90
30694;DHT22;17446;48.022;-1.740;2024-02-21T04:29:57;11.60;99.90
30694;DHT22;17446;48.022;-1.740;2024-02-21T04:32:23;11.60;99.90
30694;DHT22;17446;48.022;-1.740;2024-02-21T04:34:49;11.70;99.90
30694;DHT22;17446;48.022;-1.740;2024-02-21T04:37:14;11.60;99.90
30694;DHT22;17446;48.022;-1.740;2024-02-21T04:39:40;11.60;99.90
30694;DHT22;17446;48.022;-1.740;2024-02-21T04:42:06;11.60;99.90
30694;DHT22;17446;48.022;-1.740;2024-02-21T04:44:31;11.60;99.90
30694;DHT22;17446;48.022;-1.740;2024-02-21T04:46:57;11.60;99.90
30694;DHT22;17446;48.022;-1.740;2024-02-21T04:49:22;11.60;99.90
30694;DHT22;17446;48.022;-1.740;2024-02-21T04:51:48;11.60;99.90
30694;DHT22;17446;48.022;-1.740;2024-02-21T04:54:13;11.60;99.90
30694;DHT22;17446;48.022;-1.740;2024-02-21T04:56:39;11.60;99.90
30694;DHT22;17446;48.022;-1.740;2024-02-21T04:59:05;11.60;99.90
30694;DHT22;17446;48.022;-1.740;2024-02-21T05:01:30;11.60;99.90
30694;DHT22;17446;48.022;-1.740;2024-02-21T05:03:56;11.60;99.90
30694;DHT22;17446;48.022;-1.740;2024-02-21T05:06:22;11.60;99.90
30694;DHT22;17446;48.022;-1.740;2024-02-21T05:08:47;11.60;99.90
30694;DHT22;17446;48.022;-1.740;2024-02-21T05:11:13;11.60;99.90
30694;DHT22;17446;48.022;-1.740;2024-02-21T05:13:39;11.60;99.90
30694;DHT22;17446;48.022;-1.740;2024-02-21T05:16:05;11.60;99.90
30694;DHT22;17446;48.022;-1.740;2024-02-21T05:18:32;11.60;99.90
30694;DHT22;17446;48.022;-1.740;2024-02-21T05:20:58;11.60;99.90
30694;DHT22;17446;48.022;-1.740;2024-02-21T05:23:24;11.60;99.90
30694;DHT22;17446;48.022;-1.740;2024-02-21T05:25:50;11.60;99.90
30694;DHT22;17446;48.022;-1.740;2024-02-21T05:28:16;11.60;99.90
30694;DHT22;17446;48.022;-1.740;2024-02-21T05:30:42;11.60;99.90
30694;DHT22;17446;48.022;-1.740;2024-02-21T05:33:08;11.60;99.90
30694;DHT22;17446;48.022;-1.740;2024-02-21T05:35:35;11.60;99.90
30694;DHT22;17446;48.022;-1.740;2024-02-21T05:38:01;11.60;99.90
30694;DHT22;17446;48.022;-1.740;2024-02-21T05:40:30;11.60;99.90
30694;DHT22;17446;48.022;-1.740;2024-02-21T05:42:56;11.60;99.90
30694;DHT22;17446;48.022;-1.740;2024-02-21T05:45:23;11.60;99.90
30694;DHT22;17446;48.022;-1.740;2024-02-21T05:47:48;11.60;99.90
30694;DHT22;17446;48.022;-1.740;2024-02-21T05:50:14;11.60;99.90
30694;DHT22;17446;48.022;-1.740;2024-02-21T05:52:39;11.60;99.90
30694;DHT22;17446;48.022;-1.740;2024-02-21T05:55:07;11.50;99.90
30694;DHT22;17446;48.022;-1.740;2024-02-21T05:57:33;11.60;99.90
30694;DHT22;17446;48.022;-1.740;2024-02-21T05:59:58;11.60;99.90
30694;DHT22;17446;48.022;-1.740;2024-02-21T06:02:24;11.60;99.90
30694;DHT22;17446;48.022;-1.740;2024-02-21T06:04:49;11.60;99.90
30694;DHT22;17446;48.022;-1.740;2024-02-21T06:07:15;11.50;99.90
30694;DHT22;17446;48.022;-1.740;2024-02-21T06:09:40;11.60;99.90
30694;DHT22;17446;48.022;-1.740;2024-02-21T06:12:06;11.60;99.90
30694;DHT22;17446;48.022;-1.740;2024-02-21T06:14:32;11.60;99.90
30694;DHT22;17446;48.022;-1.740;2024-02-21T06:16:57;11.60;99.90
30694;DHT22;17446;48.022;-1.740;2024-02-21T06:19:23;11.60;99.90
30694;DHT22;17446;48.022;-1.740;2024-02-21T06:21:49;11.60;99.90
30694;DHT22;17446;48.022;-1.740;2024-02-21T06:24:14;11.60;99.90
30694;DHT22;17446;48.022;-1.740;2024-02-21T06:26:40;11.70;99.90
30694;DHT22;17446;48.022;-1.740;2024-02-21T06:29:06;11.70;99.90
30694;DHT22;17446;48.022;-1.740;2024-02-21T06:31:32;11.60;99.90
30694;DHT22;17446;48.022;-1.740;2024-02-21T06:33:57;11.70;99.90
30694;DHT22;17446;48.022;-1.740;2024-02-21T06:36:23;11.60;99.90
30694;DHT22;17446;48.022;-1.740;2024-02-21T06:38:48;11.60;99.90
30694;DHT22;17446;48.022;-1.740;2024-02-21T06:41:18;11.60;99.90
30694;DHT22;17446;48.022;-1.740;2024-02-21T06:43:48;11.60;99.90
30694;DHT22;17446;48.022;-1.740;2024-02-21T06:46:27;11.70;99.90
30694;DHT22;17446;48.022;-1.740;2024-02-21T06:48:54;11.60;99.90
30694;DHT22;17446;48.022;-1.740;2024-02-21T06:51:22;11.60;99.90
30694;DHT22;17446;48.022;-1.740;2024-02-21T06:53:48;11.70;99.90
30694;DHT22;17446;48.022;-1.740;2024-02-21T06:56:14;11.60;99.90
30694;DHT22;17446;48.022;-1.740;2024-02-21T06:58:39;11.70;99.90
30694;DHT22;17446;48.022;-1.740;2024-02-21T07:01:05;11.70;99.90
30694;DHT22;17446;48.022;-1.740;2024-02-21T07:03:30;11.70;99.90
30694;DHT22;17446;48.022;-1.740;2024-02-21T07:05:56;11.70;99.90
30694;DHT22;17446;48.022;-1.740;2024-02-21T07:08:21;11.70;99.90
30694;DHT22;17446;48.022;-1.740;2024-02-21T07:10:47;11.70;99.90
30694;DHT22;17446;48.022;-1.740;2024-02-21T07:13:13;11.70;99.90
30694;DHT22;17446;48.022;-1.740;2024-02-21T07:15:40;11.70;99.90
30694;DHT22;17446;48.022;-1.740;2024-02-21T07:18:06;11.70;99.90
30694;DHT22;17446;48.022;-1.740;2024-02-21T07:20:32;11.70;99.90
30694;DHT22;17446;48.022;-1.740;2024-02-21T07:22:59;11.70;99.90
30694;DHT22;17446;48.022;-1.740;2024-02-21T07:25:25;11.70;99.90
30694;DHT22;17446;48.022;-1.740;2024-02-21T07:27:50;11.70;99.90
30694;DHT22;17446;48.022;-1.740;2024-02-21T07:30:16;11.80;99.90
30694;DHT22;17446;48.022;-1.740;2024-02-21T07:32:42;11.80;99.90
30694;DHT22;17446;48.022;-1.740;2024-02-21T07:35:07;11.80;99.90
30694;DHT22;17446;48.022;-1.740;2024-02-21T07:37:37;11.70;99.90
30694;DHT22;17446;48.022;-1.740;2024-02-21T07:40:06;11.80;99.90
30694;DHT22;17446;48.022;-1.740;2024-02-21T07:42:37;11.80;99.90
30694;DHT22;17446;48.022;-1.740;2024-02-21T07:45:03;11.80;99.90
30694;DHT22;17446;48.022;-1.740;2024-02-21T07:47:29;11.80;99.90
30694;DHT22;17446;48.022;-1.740;2024-02-21T07:49:54;11.80;99.90
30694;DHT22;17446;48.022;-1.740;2024-02-21T07:52:20;11.90;99.90
30694;DHT22;17446;48.022;-1.740;2024-02-21T07:54:45;11.90;99.90
30694;DHT22;17446;48.022;-1.740;2024-02-21T07:57:11;11.90;99.90
30694;DHT22;17446;48.022;-1.740;2024-02-21T07:59:36;11.90;99.90
30694;DHT22;17446;48.022;-1.740;2024-02-21T08:02:02;12.00;99.90
30694;DHT22;17446;48.022;-1.740;2024-02-21T08:04:32;12.00;99.90
30694;DHT22;17446;48.022;-1.740;2024-02-21T08:06:57;12.00;99.90
30694;DHT22;17446;48.022;-1.740;2024-02-21T08:09:26;12.00;99.90
30694;DHT22;17446;48.022;-1.740;2024-02-21T08:11:53;12.00;99.90
30694;DHT22;17446;48.022;-1.740;2024-02-21T08:14:19;12.00;99.90
30694;DHT22;17446;48.022;-1.740;2024-02-21T08:16:45;12.00;99.90
30694;DHT22;17446;48.022;-1.740;2024-02-21T08:19:10;12.00;99.90
30694;DHT22;17446;48.022;-1.740;2024-02-21T08:21:36;12.00;99.90
30694;DHT22;17446;48.022;-1.740;2024-02-21T08:24:02;11.90;99.90
30694;DHT22;17446;48.022;-1.740;2024-02-21T08:26:28;12.00;99.90
30694;DHT22;17446;48.022;-1.740;2024-02-21T08:28:58;12.00;99.90
30694;DHT22;17446;48.022;-1.740;2024-02-21T08:31:26;12.00;99.90
30694;DHT22;17446;48.022;-1.740;2024-02-21T08:34:02;12.00;99.90
30694;DHT22;17446;48.022;-1.740;2024-02-21T08:36:30;12.00;99.90
30694;DHT22;17446;48.022;-1.740;2024-02-21T08:38:56;12.00;99.90
30694;DHT22;17446;48.022;-1.740;2024-02-21T08:41:23;12.00;99.90
30694;DHT22;17446;48.022;-1.740;2024-02-21T08:43:50;12.00;99.90
30694;DHT22;17446;48.022;-1.740;2024-02-21T08:46:16;12.10;99.90
30694;DHT22;17446;48.022;-1.740;2024-02-21T08:48:43;12.10;99.90
30694;DHT22;17446;48.022;-1.740;2024-02-21T08:51:08;12.10;99.90
30694;DHT22;17446;48.022;-1.740;2024-02-21T08:53:34;12.10;99.90
30694;DHT22;17446;48.022;-1.740;2024-02-21T08:56:00;12.20;99.90
30694;DHT22;17446;48.022;-1.740;2024-02-21T08:58:25;12.20;99.90
30694;DHT22;17446;48.022;-1.740;2024-02-21T09:00:52;12.20;99.90
30694;DHT22;17446;48.022;-1.740;2024-02-21T09:03:17;12.20;99.90
30694;DHT22;17446;48.022;-1.740;2024-02-21T09:05:45;12.20;99.90
30694;DHT22;17446;48.022;-1.740;2024-02-21T09:08:11;12.20;99.90
30694;DHT22;17446;48.022;-1.740;2024-02-21T09:10:37;12.30;99.90
30694;DHT22;17446;48.022;-1.740;2024-02-21T09:13:03;12.30;99.90
30694;DHT22;17446;48.022;-1.740;2024-02-21T09:15:29;12.30;99.90
30694;DHT22;17446;48.022;-1.740;2024-02-21T09:17:54;12.30;99.90
30694;DHT22;17446;48.022;-1.740;2024-02-21T09:20:20;12.30;99.90
30694;DHT22;17446;48.022;-1.740;2024-02-21T09:22:46;12.40;99.90
30694;DHT22;17446;48.022;-1.740;2024-02-21T09:25:11;12.40;99.90
30694;DHT22;17446;48.022;-1.740;2024-02-21T09:27:39;12.40;99.90
30694;DHT22;17446;48.022;-1.740;2024-02-21T09:30:06;12.40;99.90
30694;DHT22;17446;48.022;-1.740;2024-02-21T09:32:32;12.40;99.90
30694;DHT22;17446;48.022;-1.740;2024-02-21T09:35:00;12.50;99.90
30694;DHT22;17446;48.022;-1.740;2024-02-21T09:37:26;12.50;99.90
30694;DHT22;17446;48.022;-1.740;2024-02-21T09:39:51;12.60;99.90
30694;DHT22;17446;48.022;-1.740;2024-02-21T09:42:20;12.60;99.90
30694;DHT22;17446;48.022;-1.740;2024-02-21T09:44:47;12.60;99.90
30694;DHT22;17446;48.022;-1.740;2024-02-21T09:47:22;12.70;99.90
30694;DHT22;17446;48.022;-1.740;2024-02-21T09:49:48;12.70;99.90
30694;DHT22;17446;48.022;-1.740;2024-02-21T09:52:15;12.70;99.90
30694;DHT22;17446;48.022;-1.740;2024-02-21T09:54:41;12.80;99.90
30694;DHT22;17446;48.022;-1.740;2024-02-21T09:57:10;12.70;99.90
30694;DHT22;17446;48.022;-1.740;2024-02-21T09:59:36;12.80;99.90
30694;DHT22;17446;48.022;-1.740;2024-02-21T10:02:02;12.80;99.90
30694;DHT22;17446;48.022;-1.740;2024-02-21T10:04:30;12.80;99.90
30694;DHT22;17446;48.022;-1.740;2024-02-21T10:06:56;12.80;99.90
30694;DHT22;17446;48.022;-1.740;2024-02-21T10:09:25;12.80;99.90
30694;DHT22;17446;48.022;-1.740;2024-02-21T10:11:53;12.80;99.90
30694;DHT22;17446;48.022;-1.740;2024-02-21T10:14:19;12.80;99.90
30694;DHT22;17446;48.022;-1.740;2024-02-21T10:16:47;12.80;99.90
30694;DHT22;17446;48.022;-1.740;2024-02-21T10:19:20;12.90;99.90
30694;DHT22;17446;48.022;-1.740;2024-02-21T10:22:08;12.90;99.90
30694;DHT22;17446;48.022;-1.740;2024-02-21T10:24:35;12.90;99.90
30694;DHT22;17446;48.022;-1.740;2024-02-21T10:27:04;12.90;99.90
30694;DHT22;17446;48.022;-1.740;2024-02-21T10:29:34;12.90;99.90
30694;DHT22;17446;48.022;-1.740;2024-02-21T10:32:13;12.90;99.90
30694;DHT22;17446;48.022;-1.740;2024-02-21T10:34:40;13.00;99.90
30694;DHT22;17446;48.022;-1.740;2024-02-21T10:37:07;13.00;99.90
30694;DHT22;17446;48.022;-1.740;2024-02-21T10:39:35;13.00;99.90
30694;DHT22;17446;48.022;-1.740;2024-02-21T10:42:02;13.00;99.90
30694;DHT22;17446;48.022;-1.740;2024-02-21T10:44:33;13.10;99.90
30694;DHT22;17446;48.022;-1.740;2024-02-21T10:46:58;13.10;99.90
30694;DHT22;17446;48.022;-1.740;2024-02-21T10:49:26;13.10;99.90
30694;DHT22;17446;48.022;-1.740;2024-02-21T10:52:22;13.10;99.90
30694;DHT22;17446;48.022;-1.740;2024-02-21T10:54:56;13.20;99.90
30694;DHT22;17446;48.022;-1.740;2024-02-21T10:57:22;13.20;99.90
30694;DHT22;17446;48.022;-1.740;2024-02-21T10:59:49;13.20;99.90
30694;DHT22;17446;48.022;-1.740;2024-02-21T11:02:15;13.20;99.90
30694;DHT22;17446;48.022;-1.740;2024-02-21T11:04:42;13.20;99.90
30694;DHT22;17446;48.022;-1.740;2024-02-21T11:07:08;13.20;99.90
30694;DHT22;17446;48.022;-1.740;2024-02-21T11:09:34;13.20;99.90
30694;DHT22;17446;48.022;-1.740;2024-02-21T11:12:03;13.20;99.90
30694;DHT22;17446;48.022;-1.740;2024-02-21T11:14:29;13.20;99.90
30694;DHT22;17446;48.022;-1.740;2024-02-21T11:16:58;13.30;99.90
30694;DHT22;17446;48.022;-1.740;2024-02-21T11:19:28;13.30;99.90
30694;DHT22;17446;48.022;-1.740;2024-02-21T11:21:55;13.30;99.90
30694;DHT22;17446;48.022;-1.740;2024-02-21T11:27:07;13.30;99.90
30694;DHT22;17446;48.022;-1.740;2024-02-21T11:29:33;13.20;99.90
30694;DHT22;17446;48.022;-1.740;2024-02-21T11:32:09;13.30;99.90
30694;DHT22;17446;48.022;-1.740;2024-02-21T11:34:36;13.30;99.90
30694;DHT22;17446;48.022;-1.740;2024-02-21T11:37:02;13.30;99.90
30694;DHT22;17446;48.022;-1.740;2024-02-21T11:39:27;13.30;99.90
30694;DHT22;17446;48.022;-1.740;2024-02-21T11:42:07;13.30;99.90
30694;DHT22;17446;48.022;-1.740;2024-02-21T11:44:37;13.30;99.90
30694;DHT22;17446;48.022;-1.740;2024-02-21T11:47:07;13.40;99.90
30694;DHT22;17446;48.022;-1.740;2024-02-21T11:49:45;13.40;99.90
30694;DHT22;17446;48.022;-1.740;2024-02-21T11:52:11;13.40;99.90
30694;DHT22;17446;48.022;-1.740;2024-02-21T11:54:37;13.30;99.90
30694;DHT22;17446;48.022;-1.740;2024-02-21T11:57:02;13.40;99.90
30694;DHT22;17446;48.022;-1.740;2024-02-21T11:59:33;13.40;99.90
30694;DHT22;17446;48.022;-1.740;2024-02-21T12:01:59;13.40;99.90
30694;DHT22;17446;48.022;-1.740;2024-02-21T12:04:26;13.40;99.90
30694;DHT22;17446;48.022;-1.740;2024-02-21T12:06:53;13.30;99.90
30694;DHT22;17446;48.022;-1.740;2024-02-21T12:09:19;13.30;99.90
30694;DHT22;17446;48.022;-1.740;2024-02-21T12:11:45;13.30;99.90
30694;DHT22;17446;48.022;-1.740;2024-02-21T12:14:16;13.30;99.90
30694;DHT22;17446;48.022;-1.740;2024-02-21T12:16:42;13.30;99.90
30694;DHT22;17446;48.022;-1.740;2024-02-21T12:19:09;13.30;99.90
30694;DHT22;17446;48.022;-1.740;2024-02-21T12:21:35;13.30;99.90
30694;DHT22;17446;48.022;-1.740;2024-02-21T12:24:14;13.20;99.90
30694;DHT22;17446;48.022;-1.740;2024-02-21T12:26:40;13.20;99.90
30694;DHT22;17446;48.022;-1.740;2024-02-21T12:29:07;13.20;99.90
30694;DHT22;17446;48.022;-1.740;2024-02-21T12:31:38;13.20;99.90
30694;DHT22;17446;48.022;-1.740;2024-02-21T12:34:04;13.20;99.90
30694;DHT22;17446;48.022;-1.740;2024-02-21T12:36:31;13.20;99.90
30694;DHT22;17446;48.022;-1.740;2024-02-21T12:38:57;13.20;99.90
30694;DHT22;17446;48.022;-1.740;2024-02-21T12:41:22;13.30;99.90
30694;DHT22;17446;48.022;-1.740;2024-02-21T12:43:48;13.30;99.90
30694;DHT22;17446;48.022;-1.740;2024-02-21T12:46:13;13.30;99.90
30694;DHT22;17446;48.022;-1.740;2024-02-21T12:48:39;13.30;99.90
30694;DHT22;17446;48.022;-1.740;2024-02-21T12:51:05;13.30;99.90
30694;DHT22;17446;48.022;-1.740;2024-02-21T12:53:31;13.30;99.90
30694;DHT22;17446;48.022;-1.740;2024-02-21T12:55:57;13.30;99.90
30694;DHT22;17446;48.022;-1.740;2024-02-21T12:58:22;13.30;99.90
30694;DHT22;17446;48.022;-1.740;2024-02-21T13:00:48;13.20;99.90
30694;DHT22;17446;48.022;-1.740;2024-02-21T13:03:14;13.20;99.90
30694;DHT22;17446;48.022;-1.740;2024-02-21T13:05:39;13.20;99.90
30694;DHT22;17446;48.022;-1.740;2024-02-21T13:08:06;13.10;99.90
30694;DHT22;17446;48.022;-1.740;2024-02-21T13:10:32;13.10;99.90
30694;DHT22;17446;48.022;-1.740;2024-02-21T13:13:03;13.00;99.90
30694;DHT22;17446;48.022;-1.740;2024-02-21T13:15:29;13.00;99.90
30694;DHT22;17446;48.022;-1.740;2024-02-21T13:17:58;13.00;99.90
30694;DHT22;17446;48.022;-1.740;2024-02-21T13:20:27;13.00;99.90
30694;DHT22;17446;48.022;-1.740;2024-02-21T13:22:53;13.00;99.90
30694;DHT22;17446;48.022;-1.740;2024-02-21T13:25:19;12.90;99.90
30694;DHT22;17446;48.022;-1.740;2024-02-21T13:27:47;12.90;99.90
30694;DHT22;17446;48.022;-1.740;2024-02-21T13:30:13;12.90;99.90
30694;DHT22;17446;48.022;-1.740;2024-02-21T13:32:44;12.90;99.90
30694;DHT22;17446;48.022;-1.740;2024-02-21T13:35:13;12.90;99.90
30694;DHT22;17446;48.022;-1.740;2024-02-21T13:37:40;12.90;99.90
30694;DHT22;17446;48.022;-1.740;2024-02-21T13:40:06;12.90;99.90
30694;DHT22;17446;48.022;-1.740;2024-02-21T13:42:34;12.90;99.90
30694;DHT22;17446;48.022;-1.740;2024-02-21T13:45:00;12.90;99.90
30694;DHT22;17446;48.022;-1.740;2024-02-21T13:47:26;13.00;99.90
30694;DHT22;17446;48.022;-1.740;2024-02-21T13:49:52;13.00;99.90
30694;DHT22;17446;48.022;-1.740;2024-02-21T13:52:17;13.00;99.90
30694;DHT22;17446;48.022;-1.740;2024-02-21T13:54:46;13.00;99.90
30694;DHT22;17446;48.022;-1.740;2024-02-21T13:57:12;13.00;99.90
30694;DHT22;17446;48.022;-1.740;2024-02-21T13:59:37;13.10;99.90
30694;DHT22;17446;48.022;-1.740;2024-02-21T14:02:05;13.10;99.90
30694;DHT22;17446;48.022;-1.740;2024-02-21T14:04:33;13.10;99.90
30694;DHT22;17446;48.022;-1.740;2024-02-21T14:06:59;13.10;99.90
30694;DHT22;17446;48.022;-1.740;2024-02-21T14:09:24;13.10;99.90
30694;DHT22;17446;48.022;-1.740;2024-02-21T14:11:50;13.10;99.90
30694;DHT22;17446;48.022;-1.740;2024-02-21T14:14:15;13.10;99.90
30694;DHT22;17446;48.022;-1.740;2024-02-21T14:16:41;13.10;99.90
30694;DHT22;17446;48.022;-1.740;2024-02-21T14:19:07;13.10;99.90
30694;DHT22;17446;48.022;-1.740;2024-02-21T14:21:34;13.10;99.90
30694;DHT22;17446;48.022;-1.740;2024-02-21T14:24:03;13.10;99.90
30694;DHT22;17446;48.022;-1.740;2024-02-21T14:26:29;13.20;99.90
30694;DHT22;17446;48.022;-1.740;2024-02-21T14:28:57;13.20;99.90
30694;DHT22;17446;48.022;-1.740;2024-02-21T14:31:22;13.20;99.90
30694;DHT22;17446;48.022;-1.740;2024-02-21T14:33:48;13.20;99.90
30694;DHT22;17446;48.022;-1.740;2024-02-21T14:36:14;13.30;99.90
30694;DHT22;17446;48.022;-1.740;2024-02-21T14:38:41;13.30;99.90
30694;DHT22;17446;48.022;-1.740;2024-02-21T14:41:07;13.30;99.90
30694;DHT22;17446;48.022;-1.740;2024-02-21T14:43:32;13.30;99.90
30694;DHT22;17446;48.022;-1.740;2024-02-21T14:46:00;13.30;99.90
30694;DHT22;17446;48.022;-1.740;2024-02-21T14:48:25;13.40;99.90
30694;DHT22;17446;48.022;-1.740;2024-02-21T14:50:54;13.40;99.90
30694;DHT22;17446;48.022;-1.740;2024-02-21T14:53:19;13.40;99.90
30694;DHT22;17446;48.022;-1.740;2024-02-21T14:55:45;13.50;99.90
30694;DHT22;17446;48.022;-1.740;2024-02-21T14:58:10;13.50;99.90
30694;DHT22;17446;48.022;-1.740;2024-02-21T15:00:36;13.60;99.90
30694;DHT22;17446;48.022;-1.740;2024-02-21T15:03:02;13.60;99.90
30694;DHT22;17446;48.022;-1.740;2024-02-21T15:05:28;13.60;99.90
30694;DHT22;17446;48.022;-1.740;2024-02-21T15:07:56;13.70;99.90
30694;DHT22;17446;48.022;-1.740;2024-02-21T15:10:23;13.70;99.90
30694;DHT22;17446;48.022;-1.740;2024-02-21T15:12:49;13.70;99.90
30694;DHT22;17446;48.022;-1.740;2024-02-21T15:15:14;13.70;99.90